Ana Sayfa
METAR-TAF:

METAR-TAF

Havaalanları :

Östersund-Frösön, İsveç

Enlem: 63-11N, Boylam: 014-30E, yükseklik: 376 m

Güncel hava durumu gözlemi

Rapor saat 20:50 UTC de 27 dakika önce yapıldı.
Rüzgar batı/kuzeybatıdan 17 kt
Sıcaklık -3°C
Nem 80%
Basınç 989 hPa
Görüş mesafesi 10 km veya daha fazla
2800 ft yükseklikte az bulutlu

METAR: ESNZ 232050Z 30017KT 9999 FEW028 M03/M06 Q0989

Saat: 22:17 (21:17 UTC)

Tahmin

Rapor saat 20:30 UTC de 47 dakika önce yapıldı.
Ayın 23'si saat 21 UTC'den ayın 23'si saat 23 UTC'ye kadar geçerli Tahmin
Rüzgar batı/kuzeybatıdan 15 kt ve 25 kt'a kadar ani rüzgarlar
Görüş mesafesi 10 km veya daha fazla
1500 m altında bulut yok ve kümülonimbus yok

TAF: ESNZ 232030Z 2321/2323 29015G25KT CAVOK

4.000'den fazla havaalanı için hava durumu gözlemleri ve tahminleri (METAR ve TAF raporları).

Kullanılabilir istasyonlar harita üzerinde sarı ve kırmızı noktalarla gösterilir.

İstasyonun adını görmek için fareyi noktanın üzerinde gezdirin.

Sonrasında hava gözlem ve tahminlerini görmek için tıklayın.

Haritayı değiştirmek için: yaklaştırmak için siyah artı işaretli yeşil düğmeye ve uzaklaştırmak için de eksi işaretli düğmeye hızla tıklayın; bitişik haritalar için yeşil okları kullanın.


METAR-TAF: